LFOP

Rouen Airport

Rouen/Vallée de Seine, France
TAF LFOP 210500Z 2106/2206 VRB03KT CAVOK TEMPO 2120/2201 24020G35KT 4000 TSRA BKN050CB PROB30 TEMPO 2120/2201 1500 TSGR
Issued Valid From Valid To
Apr-21 @ 05:00 UTC
(5 hours ago)
Apr-21 @ 06:00 UTC
(4 hours ago)
Apr-22 @ 06:00 UTC
(in 20 hours)
Apr-21 @ 06:00 to Apr-22 @ 06:00
TAF LFOP 210500Z 2106/2206 VRB03KT CAVOK
Wind Visibility Clouds Conditions
Variable at 3 knots 10,000+ meters
  • No significant clouds
Temporary  (Probability 30%) Apr-21 @ 20:00 to Apr-22 @ 01:00
PROB30 TEMPO 2120/2201 1500 TSGR
Visibility Conditions
1,497 meters
  • Thunderstorm
  • Hail
Temporary Apr-21 @ 20:00 to Apr-22 @ 01:00
TEMPO 2120/2201 24020G35KT 4000 TSRA BKN050CB
Wind Visibility Clouds Conditions
240° at 20 knots
 Gusting to 35 knots
4,007 meters
  • Broken at 5,000' AGL
  • Thunderstorm
  • Rain
TAF LFOP 210500Z 2106/2206 VRB03KT CAVOK TEMPO 2120/2201 24020G35KT 4000 TSRA BKN050CB PROB30 TEMPO 2120/2201 1500 TSGR
Issued Apr-21 @ 05:00 UTC
(5 hours ago)
Valid From Apr-21 @ 06:00 UTC
(4 hours ago)
Valid To Apr-22 @ 06:00 UTC
(in 20 hours)
Apr-21 @ 06:00 - Apr-22 @ 06:00
Wind Visibility
Variable at 3 knots 10,000+ meters
Clouds
  • No significant clouds
Conditions
Probability 30% Temporary Apr-21 @ 20:00 - Apr-22 @ 01:00
Conditions
  • Thunderstorm
  • Hail
Temporary Apr-21 @ 20:00 - Apr-22 @ 01:00
Wind Visibility
240° at 20 knots
 Gusting to 35 knots
4,007 meters
Clouds
  • Broken at 5,000' AGL
Conditions
  • Thunderstorm
  • Rain